createdAt,value
2023-03-15T00:01:52.318Z,7.67
2023-03-15T00:04:19.452Z,8.10
2023-03-15T00:06:46.162Z,6.00
2023-03-15T00:09:13.312Z,8.60
2023-03-15T00:11:39.985Z,9.17
2023-03-15T00:14:06.757Z,6.93
2023-03-15T00:16:33.570Z,7.93
2023-03-15T00:19:00.738Z,8.43
2023-03-15T00:21:29.866Z,4.60
2023-03-15T00:23:57.204Z,3.90
2023-03-15T00:26:25.212Z,7.10
2023-03-15T00:28:52.030Z,5.60
2023-03-15T00:31:21.466Z,7.00
2023-03-15T00:33:49.032Z,10.23
2023-03-15T00:36:16.307Z,8.60
2023-03-15T00:38:46.199Z,6.70
2023-03-15T00:41:15.617Z,9.93
2023-03-15T00:43:43.412Z,7.40
2023-03-15T00:46:10.442Z,5.70
2023-03-15T00:48:37.461Z,7.43
2023-03-15T00:51:10.923Z,9.30
2023-03-15T00:53:39.533Z,6.33
2023-03-15T00:56:17.813Z,8.53
2023-03-15T00:58:44.871Z,6.30
2023-03-15T01:01:30.663Z,6.30
2023-03-15T01:03:57.815Z,9.20
2023-03-15T01:06:27.771Z,7.60
2023-03-15T01:08:56.674Z,7.13
2023-03-15T01:11:26.464Z,6.80
2023-03-15T01:13:54.526Z,4.27
2023-03-15T01:16:21.884Z,6.47
2023-03-15T01:18:49.054Z,5.43
2023-03-15T01:21:16.246Z,3.67
2023-03-15T01:23:42.986Z,3.83
2023-03-15T01:26:12.715Z,4.93
2023-03-15T01:28:39.590Z,9.40
2023-03-15T01:31:06.653Z,5.80
2023-03-15T01:33:33.392Z,7.13
2023-03-15T01:36:02.665Z,8.50
2023-03-15T01:38:30.144Z,8.60
2023-03-15T01:40:56.911Z,5.77
2023-03-15T01:43:25.632Z,5.17
2023-03-15T01:46:19.669Z,8.60
2023-03-15T01:48:51.461Z,6.93
2023-03-15T01:51:27.601Z,12.17
2023-03-15T01:54:19.691Z,11.23
2023-03-15T01:56:52.668Z,5.87
2023-03-15T01:59:25.209Z,5.93
2023-03-15T02:01:54.572Z,10.03
2023-03-15T02:04:34.016Z,7.03
2023-03-15T02:07:03.336Z,9.43
2023-03-15T02:09:56.360Z,11.10
2023-03-15T02:12:23.127Z,12.97
2023-03-15T02:14:51.926Z,8.30
2023-03-15T02:17:22.077Z,8.03
2023-03-15T02:20:04.789Z,10.53
2023-03-15T02:22:53.467Z,10.57
2023-03-15T02:25:49.150Z,9.50
2023-03-15T02:28:17.776Z,12.67
2023-03-15T02:30:45.464Z,7.93
2023-03-15T02:33:26.168Z,9.40
2023-03-15T02:35:54.002Z,8.23
2023-03-15T02:38:22.667Z,9.13
2023-03-15T02:40:51.688Z,7.67
2023-03-15T02:43:23.475Z,7.67
2023-03-15T02:45:50.671Z,10.07
2023-03-15T02:48:18.359Z,11.43
2023-03-15T02:50:45.088Z,6.87
2023-03-15T02:53:12.398Z,12.60
2023-03-15T02:55:39.428Z,12.17
2023-03-15T02:58:06.167Z,11.07
2023-03-15T03:00:32.989Z,11.40
2023-03-15T03:02:59.799Z,8.27
2023-03-15T03:05:26.563Z,13.43
2023-03-15T03:07:53.270Z,6.63
2023-03-15T03:10:21.220Z,9.47
2023-03-15T03:12:48.008Z,6.33
2023-03-15T03:15:14.708Z,8.47
2023-03-15T03:17:41.444Z,7.87
2023-03-15T03:20:11.658Z,7.93
2023-03-15T03:22:38.612Z,10.63
2023-03-15T03:25:06.388Z,10.53
2023-03-15T03:27:36.731Z,16.30
2023-03-15T03:30:08.582Z,7.77
2023-03-15T03:32:35.709Z,12.77
2023-03-15T03:35:02.710Z,9.37
2023-03-15T03:37:30.906Z,8.17
2023-03-15T03:39:58.209Z,7.20
2023-03-15T03:42:25.179Z,10.87
2023-03-15T03:44:53.994Z,15.33
2023-03-15T03:47:21.192Z,10.07
2023-03-15T03:49:47.915Z,11.47
2023-03-15T03:52:14.636Z,9.00
2023-03-15T03:54:42.771Z,11.97
2023-03-15T03:57:11.102Z,10.10
2023-03-15T03:59:37.851Z,11.47
2023-03-15T04:02:04.640Z,12.50
2023-03-15T04:04:31.594Z,10.40
2023-03-15T04:06:58.433Z,8.83
2023-03-15T04:09:25.180Z,11.30
2023-03-15T04:11:51.892Z,12.03
2023-03-15T04:14:18.619Z,18.50
2023-03-15T04:16:45.530Z,14.43
2023-03-15T04:19:12.947Z,16.37
2023-03-15T04:21:39.984Z,10.53
2023-03-15T04:24:07.477Z,13.37
2023-03-15T04:26:34.601Z,14.13
2023-03-15T04:29:01.386Z,10.17
2023-03-15T04:31:28.147Z,16.70
2023-03-15T04:33:55.474Z,16.83
2023-03-15T04:36:23.203Z,17.70
2023-03-15T04:38:50.836Z,15.30
2023-03-15T04:41:18.799Z,14.07
2023-03-15T04:43:46.216Z,17.10
2023-03-15T04:46:13.000Z,16.27
2023-03-15T04:48:39.734Z,20.23
2023-03-15T04:51:06.429Z,18.33
2023-03-15T04:53:33.148Z,22.13
2023-03-15T04:55:59.992Z,27.17
2023-03-15T04:58:26.689Z,21.67
2023-03-15T05:00:54.124Z,19.40
2023-03-15T05:03:21.156Z,28.43
2023-03-15T05:05:47.989Z,22.30
2023-03-15T05:08:14.997Z,20.63
2023-03-15T05:10:41.766Z,18.47
2023-03-15T05:13:08.495Z,18.63
2023-03-15T05:15:35.253Z,22.27
2023-03-15T05:18:01.954Z,22.23
2023-03-15T05:20:28.654Z,26.63
2023-03-15T05:22:55.361Z,26.90
2023-03-15T05:25:22.250Z,20.03
2023-03-15T05:27:49.203Z,22.80
2023-03-15T05:30:16.427Z,24.30
2023-03-15T05:32:44.704Z,27.07
2023-03-15T05:35:12.759Z,22.57
2023-03-15T05:37:40.272Z,24.77
2023-03-15T05:40:08.288Z,25.13
2023-03-15T05:42:35.246Z,21.17
2023-03-15T05:45:02.222Z,29.67
2023-03-15T05:47:28.939Z,24.33
2023-03-15T05:49:55.649Z,25.83
2023-03-15T05:52:22.399Z,28.60
2023-03-15T05:54:49.180Z,22.47
2023-03-15T05:57:15.881Z,20.77
2023-03-15T05:59:42.558Z,19.33
2023-03-15T06:02:09.978Z,22.60
2023-03-15T06:04:38.134Z,30.77
2023-03-15T06:07:05.190Z,22.13
2023-03-15T06:09:32.234Z,20.13
2023-03-15T06:11:59.251Z,24.27
2023-03-15T06:14:27.442Z,25.23
2023-03-15T06:16:54.739Z,23.33
2023-03-15T06:19:22.206Z,26.00
2023-03-15T06:21:49.663Z,21.43
2023-03-15T06:24:16.491Z,25.63
2023-03-15T06:26:43.291Z,18.90
2023-03-15T06:29:09.969Z,19.20
2023-03-15T06:31:36.802Z,22.23
2023-03-15T06:34:03.531Z,20.40
2023-03-15T06:36:31.458Z,17.93
2023-03-15T06:38:58.279Z,21.90
2023-03-15T06:41:25.161Z,18.60
2023-03-15T06:43:51.898Z,15.13
2023-03-15T06:46:18.640Z,17.83
2023-03-15T06:48:45.400Z,19.10
2023-03-15T06:51:12.173Z,16.87
2023-03-15T06:53:38.986Z,18.40
2023-03-15T06:56:05.934Z,15.63
2023-03-15T06:58:32.692Z,20.70
2023-03-15T07:00:59.466Z,15.37
2023-03-15T07:03:26.516Z,12.83
2023-03-15T07:05:54.446Z,12.00
2023-03-15T07:08:22.185Z,13.63
2023-03-15T07:10:50.358Z,13.30
2023-03-15T07:13:18.127Z,14.70
2023-03-15T07:15:45.389Z,15.30
2023-03-15T07:18:12.084Z,13.43
2023-03-15T07:20:38.786Z,13.97
2023-03-15T07:23:05.838Z,15.60
2023-03-15T07:25:37.662Z,11.87
2023-03-15T07:28:08.923Z,12.83
2023-03-15T07:30:35.603Z,8.53
2023-03-15T07:33:02.367Z,11.93
2023-03-15T07:35:29.183Z,9.50
2023-03-15T07:37:56.008Z,9.63
2023-03-15T07:40:23.555Z,7.80
2023-03-15T07:42:50.296Z,10.73
2023-03-15T07:45:17.162Z,14.03
2023-03-15T07:47:44.349Z,12.60
2023-03-15T07:50:13.237Z,16.93
2023-03-15T07:52:41.304Z,18.50
2023-03-15T07:55:08.954Z,11.13
2023-03-15T07:57:35.744Z,8.70
2023-03-15T08:00:02.570Z,7.63
2023-03-15T08:02:30.653Z,9.00
2023-03-15T08:04:58.826Z,11.63
2023-03-15T08:07:25.919Z,9.87
2023-03-15T08:09:52.676Z,8.60
2023-03-15T08:12:19.462Z,7.17
2023-03-15T08:14:46.209Z,10.52
2023-03-15T08:17:13.192Z,10.63
2023-03-15T08:19:40.356Z,7.97
2023-03-15T08:22:07.584Z,7.38
2023-03-15T08:24:34.452Z,6.47
2023-03-15T08:27:01.334Z,6.10
2023-03-15T08:29:28.631Z,5.80
2023-03-15T08:31:55.432Z,10.65
2023-03-15T08:34:22.231Z,10.13
2023-03-15T08:36:49.616Z,6.90
2023-03-15T08:39:16.539Z,8.30
2023-03-15T08:41:43.632Z,5.73
2023-03-15T08:44:10.720Z,7.70
2023-03-15T08:46:37.452Z,8.60
2023-03-15T08:49:04.171Z,5.20
2023-03-15T08:51:31.118Z,9.13
2023-03-15T08:53:57.811Z,9.93
2023-03-15T08:56:24.540Z,7.80
2023-03-15T08:58:51.671Z,8.87
2023-03-15T09:01:18.411Z,5.40
2023-03-15T09:03:45.143Z,7.87
2023-03-15T09:06:11.888Z,4.87
2023-03-15T09:08:38.643Z,11.97
2023-03-15T09:11:05.571Z,11.47
2023-03-15T09:13:32.248Z,8.37
2023-03-15T09:15:58.947Z,9.03
2023-03-15T09:18:26.107Z,13.67
2023-03-15T09:20:52.863Z,7.80
2023-03-15T09:23:19.686Z,8.93
2023-03-15T09:25:46.453Z,9.53
2023-03-15T09:28:13.171Z,8.60
2023-03-15T09:30:41.124Z,12.33
2023-03-15T09:33:08.405Z,9.40
2023-03-15T09:35:35.332Z,5.40
2023-03-15T09:38:03.845Z,8.93
2023-03-15T09:40:38.789Z,7.10
2023-03-15T09:43:11.932Z,6.57
2023-03-15T09:46:03.059Z,5.57
2023-03-15T09:48:54.231Z,5.90
2023-03-15T09:51:27.013Z,7.57
2023-03-15T09:54:02.001Z,5.17
2023-03-15T09:56:37.566Z,5.10
2023-03-15T09:59:05.807Z,7.03
2023-03-15T10:01:34.836Z,5.00
2023-03-15T10:04:16.658Z,5.80
2023-03-15T10:06:48.179Z,6.13
2023-03-15T10:09:19.528Z,3.37
2023-03-15T10:12:13.458Z,4.30
2023-03-15T10:15:19.010Z,5.77
2023-03-15T10:18:28.017Z,5.00
2023-03-15T10:21:11.900Z,5.33
2023-03-15T10:23:51.304Z,6.63
2023-03-15T10:26:24.666Z,10.47
2023-03-15T10:28:55.471Z,5.77
2023-03-15T10:31:36.854Z,5.17
2023-03-15T10:34:11.675Z,5.27
2023-03-15T10:36:49.862Z,5.23
2023-03-15T10:39:17.053Z,6.57
2023-03-15T10:41:46.659Z,8.70
2023-03-15T10:44:17.169Z,6.07
2023-03-15T10:47:02.646Z,7.53
2023-03-15T10:49:35.360Z,9.37
2023-03-15T10:52:02.147Z,6.03
2023-03-15T10:54:28.920Z,5.77
2023-03-15T10:57:07.474Z,5.43
2023-03-15T10:59:35.599Z,5.73
2023-03-15T11:02:11.674Z,6.10
2023-03-15T11:05:13.914Z,5.97
2023-03-15T11:07:55.249Z,9.10
2023-03-15T11:10:25.291Z,7.77
2023-03-15T11:13:29.240Z,5.00
2023-03-15T11:16:04.549Z,8.57
2023-03-15T11:18:36.624Z,6.10
2023-03-15T11:21:08.224Z,4.47
2023-03-15T11:23:37.992Z,6.10
2023-03-15T11:26:06.242Z,7.70
2023-03-15T11:28:37.129Z,7.47
2023-03-15T11:31:05.349Z,6.10
2023-03-15T11:33:51.391Z,5.47
2023-03-15T11:36:22.338Z,6.97
2023-03-15T11:38:50.020Z,6.40
2023-03-15T11:41:44.612Z,5.90
2023-03-15T11:44:36.495Z,5.67
2023-03-15T11:47:18.620Z,4.60
2023-03-15T11:49:55.001Z,6.40
2023-03-15T11:52:27.334Z,4.93
2023-03-15T11:55:02.074Z,7.60
2023-03-15T11:57:28.732Z,8.40
2023-03-15T12:00:27.241Z,6.37
2023-03-15T12:02:57.694Z,4.37
2023-03-15T12:05:50.920Z,4.73
2023-03-15T12:09:04.821Z,5.00
2023-03-15T12:11:34.517Z,4.90
2023-03-15T12:14:01.204Z,5.67
2023-03-15T12:16:34.930Z,5.50
2023-03-15T12:19:23.573Z,5.77
2023-03-15T12:21:58.660Z,5.33
2023-03-15T12:24:37.272Z,4.70
2023-03-15T12:27:13.634Z,8.33
2023-03-15T12:29:41.520Z,4.60
2023-03-15T12:32:20.838Z,5.93
2023-03-15T12:34:51.910Z,6.73
2023-03-15T12:37:45.139Z,6.07
2023-03-15T12:40:22.460Z,4.23
2023-03-15T12:42:49.193Z,4.83
2023-03-15T12:45:15.868Z,7.10
2023-03-15T12:47:51.697Z,5.17
2023-03-15T12:50:46.123Z,6.27
2023-03-15T12:53:19.958Z,4.33
2023-03-15T12:55:47.646Z,4.90
2023-03-15T12:58:19.241Z,4.70
2023-03-15T13:00:46.841Z,4.33
2023-03-15T13:03:23.643Z,6.40
2023-03-15T13:06:13.246Z,6.50
2023-03-15T13:09:09.235Z,5.67
2023-03-15T13:12:08.371Z,4.93
2023-03-15T13:14:54.909Z,4.10
2023-03-15T13:17:26.936Z,4.67
2023-03-15T13:20:13.700Z,4.67
2023-03-15T13:23:16.736Z,4.43
2023-03-15T13:25:48.386Z,5.87
2023-03-15T13:28:22.757Z,3.93
2023-03-15T13:30:52.673Z,5.00
2023-03-15T13:33:31.760Z,4.97
2023-03-15T13:36:05.809Z,5.17
2023-03-15T13:38:35.223Z,3.67
2023-03-15T13:41:04.800Z,3.33
2023-03-15T13:43:37.356Z,4.63
2023-03-15T13:46:04.827Z,4.67
2023-03-15T13:48:34.561Z,3.20
2023-03-15T13:51:09.350Z,3.40
2023-03-15T13:53:49.379Z,4.17
2023-03-15T13:56:20.981Z,3.60
2023-03-15T13:58:49.142Z,2.90
2023-03-15T14:01:17.245Z,3.93
2023-03-15T14:03:50.186Z,3.20
2023-03-15T14:06:23.322Z,4.30
2023-03-15T14:08:54.757Z,2.40
2023-03-15T14:11:24.694Z,6.07
2023-03-15T14:13:52.768Z,2.67
2023-03-15T14:16:31.837Z,2.20
2023-03-15T14:19:19.977Z,4.30
2023-03-15T14:21:56.048Z,3.43
2023-03-15T14:24:33.307Z,4.00
2023-03-15T14:27:02.362Z,2.63
2023-03-15T14:29:31.450Z,2.30
2023-03-15T14:32:08.166Z,3.70
2023-03-15T14:34:37.735Z,2.77
2023-03-15T14:37:27.110Z,3.37
2023-03-15T14:40:16.123Z,3.63
2023-03-15T14:42:44.445Z,4.57
2023-03-15T14:45:11.493Z,3.33
2023-03-15T14:47:55.447Z,4.23
2023-03-15T14:50:24.777Z,3.17
2023-03-15T14:52:52.049Z,4.20
2023-03-15T14:55:21.358Z,5.17
2023-03-15T14:57:48.121Z,4.00
2023-03-15T15:00:17.273Z,3.77
2023-03-15T15:02:45.469Z,3.00
2023-03-15T15:05:33.370Z,3.43
2023-03-15T15:08:12.844Z,3.40
2023-03-15T15:10:41.551Z,4.47
2023-03-15T15:13:18.162Z,4.30
2023-03-15T15:15:55.238Z,3.57
2023-03-15T15:18:28.048Z,4.23
2023-03-15T15:21:04.320Z,3.63
2023-03-15T15:23:39.546Z,3.13
2023-03-15T15:26:18.669Z,2.83
2023-03-15T15:28:45.912Z,2.47
2023-03-15T15:31:16.110Z,2.23
2023-03-15T15:33:46.056Z,2.33
2023-03-15T15:36:35.947Z,1.80
2023-03-15T15:39:07.085Z,1.50
2023-03-15T15:41:34.859Z,1.40
2023-03-15T15:44:01.905Z,1.30
2023-03-15T15:46:28.894Z,2.00
2023-03-15T15:48:55.674Z,1.50
2023-03-15T15:51:28.384Z,2.20
2023-03-15T15:54:00.396Z,2.43
2023-03-15T15:56:33.809Z,2.77
2023-03-15T15:59:04.368Z,3.00
2023-03-15T16:01:31.820Z,2.30
2023-03-15T16:03:59.734Z,2.30
2023-03-15T16:06:29.316Z,3.77
2023-03-15T16:08:56.450Z,2.50
2023-03-15T16:11:23.391Z,3.83
2023-03-15T16:13:53.981Z,5.60
2023-03-15T16:16:21.988Z,4.23
2023-03-15T16:18:48.904Z,3.50
2023-03-15T16:21:34.862Z,3.07
2023-03-15T16:24:16.572Z,3.97
2023-03-15T16:26:45.129Z,5.57
2023-03-15T16:29:23.540Z,3.43
2023-03-15T16:31:51.191Z,11.93
2023-03-15T16:34:19.631Z,6.97
2023-03-15T16:36:49.748Z,6.40
2023-03-15T16:39:16.999Z,7.03
2023-03-15T16:41:43.732Z,5.60
2023-03-15T16:44:20.112Z,5.50
2023-03-15T16:46:48.138Z,9.50
2023-03-15T16:49:16.333Z,9.37
2023-03-15T16:51:47.495Z,7.97
2023-03-15T16:54:24.294Z,6.67
2023-03-15T16:56:54.842Z,4.17
2023-03-15T16:59:21.632Z,6.33
2023-03-15T17:01:50.456Z,7.63
2023-03-15T17:04:17.476Z,9.83
2023-03-15T17:06:45.753Z,8.43
2023-03-15T17:09:19.602Z,8.27
2023-03-15T17:11:48.497Z,9.83
2023-03-15T17:14:19.543Z,8.63
2023-03-15T17:16:46.419Z,6.83
2023-03-15T17:19:14.353Z,6.03
2023-03-15T17:21:42.814Z,4.77
2023-03-15T17:24:10.956Z,6.53
2023-03-15T17:26:38.510Z,5.13
2023-03-15T17:29:05.751Z,5.80
2023-03-15T17:31:34.602Z,6.73
2023-03-15T17:34:02.490Z,6.60
2023-03-15T17:36:37.453Z,5.27
2023-03-15T17:39:06.724Z,6.40
2023-03-15T17:41:39.147Z,7.13
2023-03-15T17:44:06.115Z,10.37
2023-03-15T17:46:33.334Z,10.20
2023-03-15T17:49:01.021Z,10.27
2023-03-15T17:51:30.485Z,9.70
2023-03-15T17:53:59.363Z,11.30
2023-03-15T17:56:28.261Z,14.03
2023-03-15T17:58:55.129Z,11.90
2023-03-15T18:01:27.802Z,10.13
2023-03-15T18:03:55.383Z,9.63
2023-03-15T18:06:22.803Z,11.00
2023-03-15T18:08:50.947Z,11.37
2023-03-15T18:11:26.037Z,10.47
2023-03-15T18:13:53.153Z,11.83
2023-03-15T18:16:20.132Z,10.00
2023-03-15T18:18:46.907Z,12.77
2023-03-15T18:21:16.813Z,13.70
2023-03-15T18:23:44.632Z,14.53
2023-03-15T18:26:12.909Z,16.67
2023-03-15T18:28:40.348Z,16.03
2023-03-15T18:31:14.566Z,15.93
2023-03-15T18:33:41.684Z,14.20
2023-03-15T18:36:08.965Z,15.17
2023-03-15T18:38:36.569Z,13.07
2023-03-15T18:41:03.636Z,12.30
2023-03-15T18:43:30.506Z,13.40
2023-03-15T18:45:57.274Z,12.67
2023-03-15T18:48:39.782Z,10.97
2023-03-15T18:51:12.183Z,11.10
2023-03-15T18:53:39.317Z,11.33
2023-03-15T18:56:06.435Z,12.13
2023-03-15T18:58:33.103Z,12.97
2023-03-15T19:01:00.074Z,13.10
2023-03-15T19:03:26.882Z,12.57
2023-03-15T19:05:53.689Z,14.43
2023-03-15T19:08:20.469Z,13.27
2023-03-15T19:10:47.373Z,18.23
2023-03-15T19:13:14.077Z,32.43
2023-03-15T19:15:40.936Z,28.93
2023-03-15T19:18:07.656Z,20.17
2023-03-15T19:20:35.089Z,18.63
2023-03-15T19:23:01.804Z,16.97
2023-03-15T19:25:28.592Z,15.80
2023-03-15T19:27:57.329Z,13.10
2023-03-15T19:30:24.057Z,15.23
2023-03-15T19:32:51.198Z,12.83
2023-03-15T19:35:20.130Z,11.60
2023-03-15T19:37:48.264Z,12.37
2023-03-15T19:40:16.359Z,10.23
2023-03-15T19:42:43.242Z,8.73
2023-03-15T19:45:10.448Z,10.80
2023-03-15T19:47:37.244Z,17.30
2023-03-15T19:50:05.380Z,25.70
2023-03-15T19:52:33.414Z,24.40
2023-03-15T19:55:01.254Z,17.20
2023-03-15T19:57:28.527Z,14.90
2023-03-15T19:59:55.345Z,12.10
2023-03-15T20:02:22.129Z,12.17
2023-03-15T20:04:48.827Z,8.60
2023-03-15T20:07:15.521Z,11.30
2023-03-15T20:09:42.307Z,12.97
2023-03-15T20:12:12.989Z,13.87
2023-03-15T20:14:39.934Z,21.03
2023-03-15T20:17:06.866Z,14.67
2023-03-15T20:19:33.880Z,13.53
2023-03-15T20:22:00.624Z,13.00
2023-03-15T20:24:27.380Z,13.80
2023-03-15T20:26:54.353Z,17.23
2023-03-15T20:29:22.438Z,23.57
2023-03-15T20:31:50.046Z,27.93
2023-03-15T20:34:17.615Z,34.90
2023-03-15T20:36:44.804Z,34.63
2023-03-15T20:39:11.664Z,32.30
2023-03-15T20:41:39.181Z,24.60
2023-03-15T20:44:07.714Z,18.53
2023-03-15T20:46:34.881Z,15.77
2023-03-15T20:49:01.877Z,13.80
2023-03-15T20:51:28.583Z,12.77
2023-03-15T20:53:55.458Z,10.47
2023-03-15T20:56:22.265Z,15.03
2023-03-15T20:58:49.040Z,17.00
2023-03-15T21:01:17.000Z,12.30
2023-03-15T21:03:45.026Z,11.40
2023-03-15T21:06:12.415Z,10.07
2023-03-15T21:08:39.230Z,10.93
2023-03-15T21:11:06.735Z,17.93
2023-03-15T21:13:34.795Z,9.60
2023-03-15T21:16:04.244Z,37.03
2023-03-15T21:18:32.777Z,20.83
2023-03-15T21:21:05.808Z,18.60
2023-03-15T21:23:33.145Z,17.33
2023-03-15T21:26:07.890Z,18.40
2023-03-15T21:28:34.899Z,18.10
2023-03-15T21:31:01.713Z,16.03
2023-03-15T21:33:31.075Z,15.97
2023-03-15T21:35:59.393Z,16.37
2023-03-15T21:38:31.477Z,15.77
2023-03-15T21:40:59.858Z,15.47
2023-03-15T21:43:29.044Z,16.47
2023-03-15T21:45:59.628Z,18.90
2023-03-15T21:48:26.705Z,22.53
2023-03-15T21:50:53.853Z,20.77
2023-03-15T21:53:21.839Z,18.97
2023-03-15T21:55:48.927Z,17.13
2023-03-15T21:58:16.127Z,20.27
2023-03-15T22:00:43.023Z,19.90
2023-03-15T22:03:09.883Z,21.07
2023-03-15T22:05:36.716Z,17.73
2023-03-15T22:08:03.487Z,21.83
2023-03-15T22:10:30.418Z,31.53
2023-03-15T22:12:57.165Z,105.70
2023-03-15T22:15:24.061Z,30.87
2023-03-15T22:17:51.037Z,25.40
2023-03-15T22:20:18.413Z,22.33
2023-03-15T22:22:46.612Z,58.47
2023-03-15T22:25:14.073Z,40.33
2023-03-15T22:27:41.918Z,39.17
2023-03-15T22:30:10.753Z,31.93
2023-03-15T22:32:37.531Z,16.60
2023-03-15T22:35:04.834Z,97.43
2023-03-15T22:37:34.036Z,105.47
2023-03-15T22:40:00.833Z,52.67
2023-03-15T22:42:27.693Z,36.90
2023-03-15T22:44:54.371Z,38.43
2023-03-15T22:47:21.159Z,31.90
2023-03-15T22:49:48.285Z,16.57
2023-03-15T22:52:15.399Z,43.53
2023-03-15T22:54:43.555Z,38.07
2023-03-15T22:57:11.416Z,190.97
2023-03-15T22:59:38.923Z,323.90
2023-03-15T23:02:05.779Z,50.83
2023-03-15T23:04:33.952Z,179.57
2023-03-15T23:07:01.771Z,107.90
2023-03-15T23:09:28.674Z,25.20
2023-03-15T23:11:55.507Z,50.70
2023-03-15T23:14:22.319Z,68.10
2023-03-15T23:16:49.138Z,94.07
2023-03-15T23:19:16.013Z,52.03
2023-03-15T23:21:43.804Z,48.93
2023-03-15T23:24:10.500Z,70.07
2023-03-15T23:26:37.412Z,71.37
2023-03-15T23:29:10.697Z,101.37
2023-03-15T23:31:41.706Z,245.93
2023-03-15T23:34:08.754Z,157.00
2023-03-15T23:36:35.917Z,49.57
2023-03-15T23:39:02.651Z,76.23
2023-03-15T23:41:29.440Z,114.30
2023-03-15T23:43:56.396Z,21.00
2023-03-15T23:46:26.232Z,62.80
2023-03-15T23:48:53.215Z,21.43
2023-03-15T23:51:22.158Z,41.40
2023-03-15T23:53:48.949Z,32.43
2023-03-15T23:56:15.669Z,125.80
2023-03-15T23:58:42.348Z,74.77
